sensor_id;sensor_type;location;lat;lon;timestamp;temperature;humidity
36416;DHT22;22447;44.530;18.620;2022-12-24T00:02:20;5.40;99.90
36416;DHT22;22447;44.530;18.620;2022-12-24T00:04:46;5.30;99.90
36416;DHT22;22447;44.530;18.620;2022-12-24T00:07:12;5.40;99.90
36416;DHT22;22447;44.530;18.620;2022-12-24T00:09:38;5.40;99.90
36416;DHT22;22447;44.530;18.620;2022-12-24T00:12:04;5.50;99.90
36416;DHT22;22447;44.530;18.620;2022-12-24T00:14:30;5.50;99.90
36416;DHT22;22447;44.530;18.620;2022-12-24T00:16:56;5.50;99.90
36416;DHT22;22447;44.530;18.620;2022-12-24T00:19:22;5.60;99.90
36416;DHT22;22447;44.530;18.620;2022-12-24T00:21:48;5.60;99.90
36416;DHT22;22447;44.530;18.620;2022-12-24T00:24:14;5.60;99.90
36416;DHT22;22447;44.530;18.620;2022-12-24T00:26:40;5.60;99.90
36416;DHT22;22447;44.530;18.620;2022-12-24T00:29:06;5.70;99.90
36416;DHT22;22447;44.530;18.620;2022-12-24T00:31:32;5.70;99.90
36416;DHT22;22447;44.530;18.620;2022-12-24T00:33:57;5.80;99.90
36416;DHT22;22447;44.530;18.620;2022-12-24T00:36:23;5.70;99.90
36416;DHT22;22447;44.530;18.620;2022-12-24T00:38:49;5.70;99.90
36416;DHT22;22447;44.530;18.620;2022-12-24T00:41:15;5.80;99.90
36416;DHT22;22447;44.530;18.620;2022-12-24T00:44:00;5.90;99.90
36416;DHT22;22447;44.530;18.620;2022-12-24T00:46:29;5.90;99.90
36416;DHT22;22447;44.530;18.620;2022-12-24T00:48:55;6.00;99.90
36416;DHT22;22447;44.530;18.620;2022-12-24T00:51:22;6.00;99.90
36416;DHT22;22447;44.530;18.620;2022-12-24T00:53:48;6.00;99.90
36416;DHT22;22447;44.530;18.620;2022-12-24T00:56:14;6.10;99.90
36416;DHT22;22447;44.530;18.620;2022-12-24T00:58:40;6.20;99.90
36416;DHT22;22447;44.530;18.620;2022-12-24T01:01:07;6.10;99.90
36416;DHT22;22447;44.530;18.620;2022-12-24T01:03:33;6.10;99.90
36416;DHT22;22447;44.530;18.620;2022-12-24T01:06:04;6.10;99.90
36416;DHT22;22447;44.530;18.620;2022-12-24T01:08:31;6.10;99.90
36416;DHT22;22447;44.530;18.620;2022-12-24T01:10:57;6.20;99.90
36416;DHT22;22447;44.530;18.620;2022-12-24T01:13:24;6.20;99.90
36416;DHT22;22447;44.530;18.620;2022-12-24T01:15:50;6.30;99.90
36416;DHT22;22447;44.530;18.620;2022-12-24T01:18:16;6.30;99.90
36416;DHT22;22447;44.530;18.620;2022-12-24T01:20:42;6.40;99.90
36416;DHT22;22447;44.530;18.620;2022-12-24T01:23:08;6.40;99.90
36416;DHT22;22447;44.530;18.620;2022-12-24T01:25:35;6.40;99.90
36416;DHT22;22447;44.530;18.620;2022-12-24T01:28:01;6.40;99.90
36416;DHT22;22447;44.530;18.620;2022-12-24T01:30:27;6.30;99.90
36416;DHT22;22447;44.530;18.620;2022-12-24T01:32:53;6.30;99.90
36416;DHT22;22447;44.530;18.620;2022-12-24T01:35:19;6.40;99.90
36416;DHT22;22447;44.530;18.620;2022-12-24T01:37:45;6.40;99.90
36416;DHT22;22447;44.530;18.620;2022-12-24T01:40:16;6.50;99.90
36416;DHT22;22447;44.530;18.620;2022-12-24T01:43:01;6.50;99.90
36416;DHT22;22447;44.530;18.620;2022-12-24T01:45:53;6.40;99.90
36416;DHT22;22447;44.530;18.620;2022-12-24T01:48:55;6.40;99.90
36416;DHT22;22447;44.530;18.620;2022-12-24T01:51:16;6.30;99.90
36416;DHT22;22447;44.530;18.620;2022-12-24T01:53:47;6.30;99.90
36416;DHT22;22447;44.530;18.620;2022-12-24T01:56:14;6.30;99.90
36416;DHT22;22447;44.530;18.620;2022-12-24T01:58:44;6.30;99.90
36416;DHT22;22447;44.530;18.620;2022-12-24T02:01:11;6.30;99.90
36416;DHT22;22447;44.530;18.620;2022-12-24T02:03:37;6.10;99.90
36416;DHT22;22447;44.530;18.620;2022-12-24T02:06:03;6.00;99.90
36416;DHT22;22447;44.530;18.620;2022-12-24T02:08:29;5.90;99.90
36416;DHT22;22447;44.530;18.620;2022-12-24T02:11:19;5.80;99.90
36416;DHT22;22447;44.530;18.620;2022-12-24T02:13:53;5.90;99.90
36416;DHT22;22447;44.530;18.620;2022-12-24T02:19:57;5.80;99.90
36416;DHT22;22447;44.530;18.620;2022-12-24T02:27:58;5.80;99.90
36416;DHT22;22447;44.530;18.620;2022-12-24T02:30:41;5.80;99.90
36416;DHT22;22447;44.530;18.620;2022-12-24T02:33:15;5.80;99.90
36416;DHT22;22447;44.530;18.620;2022-12-24T02:36:05;5.70;99.90
36416;DHT22;22447;44.530;18.620;2022-12-24T02:38:48;5.70;99.90
36416;DHT22;22447;44.530;18.620;2022-12-24T02:41:27;5.70;99.90
36416;DHT22;22447;44.530;18.620;2022-12-24T02:44:15;5.70;99.90
36416;DHT22;22447;44.530;18.620;2022-12-24T02:46:42;5.60;99.90
36416;DHT22;22447;44.530;18.620;2022-12-24T02:49:08;5.60;99.90
36416;DHT22;22447;44.530;18.620;2022-12-24T02:51:34;5.60;99.90
36416;DHT22;22447;44.530;18.620;2022-12-24T02:54:00;5.50;99.90
36416;DHT22;22447;44.530;18.620;2022-12-24T02:56:35;5.50;99.90
36416;DHT22;22447;44.530;18.620;2022-12-24T03:04:47;5.30;99.90
36416;DHT22;22447;44.530;18.620;2022-12-24T03:10:26;5.50;99.90
36416;DHT22;22447;44.530;18.620;2022-12-24T03:12:56;5.50;99.90
36416;DHT22;22447;44.530;18.620;2022-12-24T03:15:25;5.50;99.90
36416;DHT22;22447;44.530;18.620;2022-12-24T03:17:55;5.60;99.90
36416;DHT22;22447;44.530;18.620;2022-12-24T03:20:26;5.70;99.90
36416;DHT22;22447;44.530;18.620;2022-12-24T03:22:55;5.80;99.90
36416;DHT22;22447;44.530;18.620;2022-12-24T03:25:23;5.70;99.90
36416;DHT22;22447;44.530;18.620;2022-12-24T03:27:50;5.80;99.90
36416;DHT22;22447;44.530;18.620;2022-12-24T03:30:16;5.90;99.90
36416;DHT22;22447;44.530;18.620;2022-12-24T03:32:44;5.90;99.90
36416;DHT22;22447;44.530;18.620;2022-12-24T03:35:11;6.00;99.90
36416;DHT22;22447;44.530;18.620;2022-12-24T03:37:37;6.00;99.90
36416;DHT22;22447;44.530;18.620;2022-12-24T03:40:04;6.00;99.90
36416;DHT22;22447;44.530;18.620;2022-12-24T03:42:30;5.90;99.90
36416;DHT22;22447;44.530;18.620;2022-12-24T03:44:56;5.80;99.90
36416;DHT22;22447;44.530;18.620;2022-12-24T03:47:22;5.80;99.90
36416;DHT22;22447;44.530;18.620;2022-12-24T03:49:48;6.00;99.90
36416;DHT22;22447;44.530;18.620;2022-12-24T03:52:14;6.00;99.90
36416;DHT22;22447;44.530;18.620;2022-12-24T03:54:40;5.80;99.90
36416;DHT22;22447;44.530;18.620;2022-12-24T03:57:06;5.80;99.90
36416;DHT22;22447;44.530;18.620;2022-12-24T03:59:31;5.70;99.90
36416;DHT22;22447;44.530;18.620;2022-12-24T04:01:57;5.70;99.90
36416;DHT22;22447;44.530;18.620;2022-12-24T04:04:23;5.80;99.90
36416;DHT22;22447;44.530;18.620;2022-12-24T04:06:49;5.70;99.90
36416;DHT22;22447;44.530;18.620;2022-12-24T04:09:15;5.80;99.90
36416;DHT22;22447;44.530;18.620;2022-12-24T04:11:41;5.80;99.90
36416;DHT22;22447;44.530;18.620;2022-12-24T04:14:07;5.80;99.90
36416;DHT22;22447;44.530;18.620;2022-12-24T04:16:33;5.90;99.90
36416;DHT22;22447;44.530;18.620;2022-12-24T04:18:59;5.90;99.90
36416;DHT22;22447;44.530;18.620;2022-12-24T04:21:25;6.00;99.90
36416;DHT22;22447;44.530;18.620;2022-12-24T04:23:51;6.10;99.90
36416;DHT22;22447;44.530;18.620;2022-12-24T04:26:17;6.00;99.90
36416;DHT22;22447;44.530;18.620;2022-12-24T04:28:43;6.00;99.90
36416;DHT22;22447;44.530;18.620;2022-12-24T04:31:14;6.00;99.90
36416;DHT22;22447;44.530;18.620;2022-12-24T04:33:40;6.00;99.90
36416;DHT22;22447;44.530;18.620;2022-12-24T04:36:07;6.00;99.90
36416;DHT22;22447;44.530;18.620;2022-12-24T04:38:34;5.90;99.90
36416;DHT22;22447;44.530;18.620;2022-12-24T04:41:07;6.00;99.90
36416;DHT22;22447;44.530;18.620;2022-12-24T04:43:35;6.00;99.90
36416;DHT22;22447;44.530;18.620;2022-12-24T04:46:19;6.10;99.90
36416;DHT22;22447;44.530;18.620;2022-12-24T04:48:47;6.10;99.90
36416;DHT22;22447;44.530;18.620;2022-12-24T04:51:14;6.00;99.90
36416;DHT22;22447;44.530;18.620;2022-12-24T04:53:42;6.00;99.90
36416;DHT22;22447;44.530;18.620;2022-12-24T04:56:16;5.90;99.90
36416;DHT22;22447;44.530;18.620;2022-12-24T04:58:42;6.00;99.90
36416;DHT22;22447;44.530;18.620;2022-12-24T05:01:12;5.90;99.90
36416;DHT22;22447;44.530;18.620;2022-12-24T05:03:39;6.00;99.90
36416;DHT22;22447;44.530;18.620;2022-12-24T05:06:08;6.00;99.90
36416;DHT22;22447;44.530;18.620;2022-12-24T05:08:35;5.90;99.90
36416;DHT22;22447;44.530;18.620;2022-12-24T05:11:02;6.00;99.90
36416;DHT22;22447;44.530;18.620;2022-12-24T05:13:28;6.00;99.90
36416;DHT22;22447;44.530;18.620;2022-12-24T05:15:54;6.10;99.90
36416;DHT22;22447;44.530;18.620;2022-12-24T05:18:20;6.10;99.90
36416;DHT22;22447;44.530;18.620;2022-12-24T05:20:48;6.10;99.90
36416;DHT22;22447;44.530;18.620;2022-12-24T05:23:16;6.10;99.90
36416;DHT22;22447;44.530;18.620;2022-12-24T05:26:01;6.10;99.90
36416;DHT22;22447;44.530;18.620;2022-12-24T05:28:46;6.30;99.90
36416;DHT22;22447;44.530;18.620;2022-12-24T05:31:12;6.30;99.90
36416;DHT22;22447;44.530;18.620;2022-12-24T05:33:38;6.30;99.90
36416;DHT22;22447;44.530;18.620;2022-12-24T05:36:04;6.30;99.90
36416;DHT22;22447;44.530;18.620;2022-12-24T05:38:30;6.30;99.90
36416;DHT22;22447;44.530;18.620;2022-12-24T05:40:56;6.30;99.90
36416;DHT22;22447;44.530;18.620;2022-12-24T05:43:22;6.30;99.90
36416;DHT22;22447;44.530;18.620;2022-12-24T05:45:48;6.30;99.90
36416;DHT22;22447;44.530;18.620;2022-12-24T05:48:14;6.30;99.90
36416;DHT22;22447;44.530;18.620;2022-12-24T05:50:40;6.30;99.90
36416;DHT22;22447;44.530;18.620;2022-12-24T05:53:06;6.40;99.90
36416;DHT22;22447;44.530;18.620;2022-12-24T05:55:33;6.50;99.90
36416;DHT22;22447;44.530;18.620;2022-12-24T05:57:59;6.40;99.90
36416;DHT22;22447;44.530;18.620;2022-12-24T06:00:25;6.40;99.90
36416;DHT22;22447;44.530;18.620;2022-12-24T06:02:51;6.50;99.90
36416;DHT22;22447;44.530;18.620;2022-12-24T06:05:17;6.50;99.90
36416;DHT22;22447;44.530;18.620;2022-12-24T06:07:43;6.50;99.90
36416;DHT22;22447;44.530;18.620;2022-12-24T06:10:09;6.40;99.90
36416;DHT22;22447;44.530;18.620;2022-12-24T06:12:35;6.50;99.90
36416;DHT22;22447;44.530;18.620;2022-12-24T06:15:01;6.40;99.90
36416;DHT22;22447;44.530;18.620;2022-12-24T06:17:27;6.50;99.90
36416;DHT22;22447;44.530;18.620;2022-12-24T06:19:53;6.50;99.90
36416;DHT22;22447;44.530;18.620;2022-12-24T06:22:19;6.60;99.90
36416;DHT22;22447;44.530;18.620;2022-12-24T06:24:45;6.60;99.90
36416;DHT22;22447;44.530;18.620;2022-12-24T06:27:11;6.70;99.90
36416;DHT22;22447;44.530;18.620;2022-12-24T06:29:37;6.70;99.90
36416;DHT22;22447;44.530;18.620;2022-12-24T06:32:03;6.70;99.90
36416;DHT22;22447;44.530;18.620;2022-12-24T06:34:29;6.80;99.90
36416;DHT22;22447;44.530;18.620;2022-12-24T06:36:54;6.70;99.90
36416;DHT22;22447;44.530;18.620;2022-12-24T06:39:20;6.70;99.90
36416;DHT22;22447;44.530;18.620;2022-12-24T06:41:46;6.80;99.90
36416;DHT22;22447;44.530;18.620;2022-12-24T06:44:12;6.80;99.90
36416;DHT22;22447;44.530;18.620;2022-12-24T06:46:38;6.90;99.90
36416;DHT22;22447;44.530;18.620;2022-12-24T06:49:04;7.00;99.90
36416;DHT22;22447;44.530;18.620;2022-12-24T06:51:30;7.00;99.90
36416;DHT22;22447;44.530;18.620;2022-12-24T06:53:56;7.00;99.90
36416;DHT22;22447;44.530;18.620;2022-12-24T06:56:22;7.00;99.90
36416;DHT22;22447;44.530;18.620;2022-12-24T06:58:48;7.10;99.90
36416;DHT22;22447;44.530;18.620;2022-12-24T07:01:15;7.10;99.90
36416;DHT22;22447;44.530;18.620;2022-12-24T07:03:42;7.20;99.90
36416;DHT22;22447;44.530;18.620;2022-12-24T07:06:19;7.20;99.90
36416;DHT22;22447;44.530;18.620;2022-12-24T07:08:46;7.10;99.90
36416;DHT22;22447;44.530;18.620;2022-12-24T07:11:11;7.10;99.90
36416;DHT22;22447;44.530;18.620;2022-12-24T07:13:37;7.20;99.90
36416;DHT22;22447;44.530;18.620;2022-12-24T07:16:04;7.30;99.90
36416;DHT22;22447;44.530;18.620;2022-12-24T07:18:30;7.40;99.90
36416;DHT22;22447;44.530;18.620;2022-12-24T07:20:56;7.40;99.90
36416;DHT22;22447;44.530;18.620;2022-12-24T07:23:23;7.50;99.90
36416;DHT22;22447;44.530;18.620;2022-12-24T07:25:49;7.50;99.90
36416;DHT22;22447;44.530;18.620;2022-12-24T07:28:15;7.50;99.90
36416;DHT22;22447;44.530;18.620;2022-12-24T07:30:41;7.40;99.90
36416;DHT22;22447;44.530;18.620;2022-12-24T07:33:07;7.40;99.90
36416;DHT22;22447;44.530;18.620;2022-12-24T07:35:34;7.50;99.90
36416;DHT22;22447;44.530;18.620;2022-12-24T07:38:01;7.50;99.90
36416;DHT22;22447;44.530;18.620;2022-12-24T07:40:27;7.50;99.90
36416;DHT22;22447;44.530;18.620;2022-12-24T07:42:52;7.50;99.90
36416;DHT22;22447;44.530;18.620;2022-12-24T07:45:18;7.60;99.90
36416;DHT22;22447;44.530;18.620;2022-12-24T07:47:44;7.70;99.90
36416;DHT22;22447;44.530;18.620;2022-12-24T07:50:10;7.80;99.90
36416;DHT22;22447;44.530;18.620;2022-12-24T07:52:36;7.90;99.90
36416;DHT22;22447;44.530;18.620;2022-12-24T07:55:02;7.90;99.90
36416;DHT22;22447;44.530;18.620;2022-12-24T07:57:28;8.00;99.90
36416;DHT22;22447;44.530;18.620;2022-12-24T07:59:54;7.90;99.90
36416;DHT22;22447;44.530;18.620;2022-12-24T08:02:20;7.90;99.90
36416;DHT22;22447;44.530;18.620;2022-12-24T08:04:46;8.00;99.90
36416;DHT22;22447;44.530;18.620;2022-12-24T08:07:12;8.00;99.90
36416;DHT22;22447;44.530;18.620;2022-12-24T08:09:38;8.10;99.90
36416;DHT22;22447;44.530;18.620;2022-12-24T08:12:04;8.10;99.90
36416;DHT22;22447;44.530;18.620;2022-12-24T08:14:31;8.10;99.90
36416;DHT22;22447;44.530;18.620;2022-12-24T08:16:57;8.20;99.90
36416;DHT22;22447;44.530;18.620;2022-12-24T08:19:23;8.20;99.90
36416;DHT22;22447;44.530;18.620;2022-12-24T08:21:49;8.20;99.90
36416;DHT22;22447;44.530;18.620;2022-12-24T08:24:15;8.10;99.90
36416;DHT22;22447;44.530;18.620;2022-12-24T08:26:41;8.10;99.90
36416;DHT22;22447;44.530;18.620;2022-12-24T08:29:07;8.20;99.90
36416;DHT22;22447;44.530;18.620;2022-12-24T08:31:33;8.20;99.90
36416;DHT22;22447;44.530;18.620;2022-12-24T08:34:03;8.30;99.90
36416;DHT22;22447;44.530;18.620;2022-12-24T08:36:29;8.40;99.90
36416;DHT22;22447;44.530;18.620;2022-12-24T08:38:55;8.40;99.90
36416;DHT22;22447;44.530;18.620;2022-12-24T08:41:21;8.50;99.90
36416;DHT22;22447;44.530;18.620;2022-12-24T08:43:47;8.50;99.90
36416;DHT22;22447;44.530;18.620;2022-12-24T08:46:13;8.70;99.90
36416;DHT22;22447;44.530;18.620;2022-12-24T08:48:39;8.80;99.90
36416;DHT22;22447;44.530;18.620;2022-12-24T08:51:09;8.80;99.90
36416;DHT22;22447;44.530;18.620;2022-12-24T08:53:35;8.80;99.90
36416;DHT22;22447;44.530;18.620;2022-12-24T08:56:03;8.80;99.90
36416;DHT22;22447;44.530;18.620;2022-12-24T08:58:29;8.90;99.90
36416;DHT22;22447;44.530;18.620;2022-12-24T09:00:55;8.90;99.90
36416;DHT22;22447;44.530;18.620;2022-12-24T09:03:21;8.90;99.90
36416;DHT22;22447;44.530;18.620;2022-12-24T09:05:47;8.90;99.90
36416;DHT22;22447;44.530;18.620;2022-12-24T09:08:13;8.90;99.90
36416;DHT22;22447;44.530;18.620;2022-12-24T09:10:39;9.00;99.90
36416;DHT22;22447;44.530;18.620;2022-12-24T09:13:05;9.00;99.90
36416;DHT22;22447;44.530;18.620;2022-12-24T09:15:31;9.00;99.90
36416;DHT22;22447;44.530;18.620;2022-12-24T09:17:57;8.90;99.90
36416;DHT22;22447;44.530;18.620;2022-12-24T09:20:23;8.90;99.90
36416;DHT22;22447;44.530;18.620;2022-12-24T09:22:49;8.90;99.90
36416;DHT22;22447;44.530;18.620;2022-12-24T09:25:15;8.90;99.90
36416;DHT22;22447;44.530;18.620;2022-12-24T09:27:41;9.00;99.90
36416;DHT22;22447;44.530;18.620;2022-12-24T09:30:07;9.00;99.90
36416;DHT22;22447;44.530;18.620;2022-12-24T09:32:33;9.10;99.90
36416;DHT22;22447;44.530;18.620;2022-12-24T09:35:00;9.10;99.90
36416;DHT22;22447;44.530;18.620;2022-12-24T09:37:25;9.20;99.90
36416;DHT22;22447;44.530;18.620;2022-12-24T09:39:51;9.20;99.90
36416;DHT22;22447;44.530;18.620;2022-12-24T09:45:20;9.30;99.90
36416;DHT22;22447;44.530;18.620;2022-12-24T09:47:48;9.40;99.90
36416;DHT22;22447;44.530;18.620;2022-12-24T09:53:17;9.50;99.90
36416;DHT22;22447;44.530;18.620;2022-12-24T09:55:50;9.50;99.90
36416;DHT22;22447;44.530;18.620;2022-12-24T09:59:20;9.50;99.90
36416;DHT22;22447;44.530;18.620;2022-12-24T10:01:29;9.60;99.90
36416;DHT22;22447;44.530;18.620;2022-12-24T10:04:03;9.70;99.90
36416;DHT22;22447;44.530;18.620;2022-12-24T10:06:39;9.70;99.90
36416;DHT22;22447;44.530;18.620;2022-12-24T10:12:19;9.80;99.90
36416;DHT22;22447;44.530;18.620;2022-12-24T10:25:29;10.00;99.90
36416;DHT22;22447;44.530;18.620;2022-12-24T10:28:00;9.90;99.90
36416;DHT22;22447;44.530;18.620;2022-12-24T10:30:28;9.90;99.90
36416;DHT22;22447;44.530;18.620;2022-12-24T10:32:55;9.90;99.90
36416;DHT22;22447;44.530;18.620;2022-12-24T10:35:28;9.90;99.90
36416;DHT22;22447;44.530;18.620;2022-12-24T10:37:57;9.90;99.90
36416;DHT22;22447;44.530;18.620;2022-12-24T10:40:42;9.90;99.90
36416;DHT22;22447;44.530;18.620;2022-12-24T10:43:22;9.90;99.90
36416;DHT22;22447;44.530;18.620;2022-12-24T10:46:09;9.90;99.90
36416;DHT22;22447;44.530;18.620;2022-12-24T10:48:55;9.90;99.90
36416;DHT22;22447;44.530;18.620;2022-12-24T10:51:49;10.00;99.90
36416;DHT22;22447;44.530;18.620;2022-12-24T10:54:21;10.00;99.90
36416;DHT22;22447;44.530;18.620;2022-12-24T10:56:50;10.00;99.90
36416;DHT22;22447;44.530;18.620;2022-12-24T11:01:56;10.00;99.90
36416;DHT22;22447;44.530;18.620;2022-12-24T11:04:26;10.00;99.90
36416;DHT22;22447;44.530;18.620;2022-12-24T11:09:34;10.00;99.90
36416;DHT22;22447;44.530;18.620;2022-12-24T11:12:03;10.00;99.90
36416;DHT22;22447;44.530;18.620;2022-12-24T11:14:35;10.10;99.90
36416;DHT22;22447;44.530;18.620;2022-12-24T11:17:02;10.00;99.90
36416;DHT22;22447;44.530;18.620;2022-12-24T11:19:37;10.10;99.90
36416;DHT22;22447;44.530;18.620;2022-12-24T11:22:28;10.10;99.90
36416;DHT22;22447;44.530;18.620;2022-12-24T11:27:38;10.20;99.90
36416;DHT22;22447;44.530;18.620;2022-12-24T11:32:48;10.10;99.90
36416;DHT22;22447;44.530;18.620;2022-12-24T11:35:22;10.10;99.90
36416;DHT22;22447;44.530;18.620;2022-12-24T11:38:14;10.10;99.90
36416;DHT22;22447;44.530;18.620;2022-12-24T11:40:44;10.10;99.90
36416;DHT22;22447;44.530;18.620;2022-12-24T11:43:19;10.00;99.90
36416;DHT22;22447;44.530;18.620;2022-12-24T11:45:55;10.00;99.90
36416;DHT22;22447;44.530;18.620;2022-12-24T11:48:29;10.00;99.90
36416;DHT22;22447;44.530;18.620;2022-12-24T11:51:01;10.10;99.90
36416;DHT22;22447;44.530;18.620;2022-12-24T11:53:40;10.00;99.90
36416;DHT22;22447;44.530;18.620;2022-12-24T11:56:37;9.90;99.90
36416;DHT22;22447;44.530;18.620;2022-12-24T12:01:53;9.90;99.90
36416;DHT22;22447;44.530;18.620;2022-12-24T12:04:24;9.70;99.90
36416;DHT22;22447;44.530;18.620;2022-12-24T12:07:29;9.90;99.90
36416;DHT22;22447;44.530;18.620;2022-12-24T12:10:05;9.90;99.90
36416;DHT22;22447;44.530;18.620;2022-12-24T12:12:40;10.00;99.90
36416;DHT22;22447;44.530;18.620;2022-12-24T12:15:20;10.10;99.90
36416;DHT22;22447;44.530;18.620;2022-12-24T12:31:17;9.90;99.90
36416;DHT22;22447;44.530;18.620;2022-12-24T12:34:04;9.90;99.90
36416;DHT22;22447;44.530;18.620;2022-12-24T12:39:53;9.90;99.90
36416;DHT22;22447;44.530;18.620;2022-12-24T12:42:32;9.90;99.90
36416;DHT22;22447;44.530;18.620;2022-12-24T12:50:24;9.90;99.90
36416;DHT22;22447;44.530;18.620;2022-12-24T12:58:48;9.90;99.90
36416;DHT22;22447;44.530;18.620;2022-12-24T13:01:39;9.90;99.90
36416;DHT22;22447;44.530;18.620;2022-12-24T13:04:34;9.90;99.90
36416;DHT22;22447;44.530;18.620;2022-12-24T13:09:56;9.80;99.90
36416;DHT22;22447;44.530;18.620;2022-12-24T13:20:47;9.80;99.90
36416;DHT22;22447;44.530;18.620;2022-12-24T13:23:18;9.90;99.90
36416;DHT22;22447;44.530;18.620;2022-12-24T13:25:45;9.90;99.90
36416;DHT22;22447;44.530;18.620;2022-12-24T13:36:10;10.10;99.90
36416;DHT22;22447;44.530;18.620;2022-12-24T13:38:45;10.10;99.90
36416;DHT22;22447;44.530;18.620;2022-12-24T13:49:29;9.80;99.90
36416;DHT22;22447;44.530;18.620;2022-12-24T13:54:38;9.80;99.90
36416;DHT22;22447;44.530;18.620;2022-12-24T13:57:41;9.70;99.90
36416;DHT22;22447;44.530;18.620;2022-12-24T14:05:44;9.60;99.90
36416;DHT22;22447;44.530;18.620;2022-12-24T14:08:15;9.60;99.90
36416;DHT22;22447;44.530;18.620;2022-12-24T14:11:12;9.60;99.90
36416;DHT22;22447;44.530;18.620;2022-12-24T14:21:36;9.60;99.90
36416;DHT22;22447;44.530;18.620;2022-12-24T14:24:09;9.60;99.90
36416;DHT22;22447;44.530;18.620;2022-12-24T14:26:45;9.70;99.90
36416;DHT22;22447;44.530;18.620;2022-12-24T14:31:54;9.80;99.90
36416;DHT22;22447;44.530;18.620;2022-12-24T14:34:20;9.70;99.90
36416;DHT22;22447;44.530;18.620;2022-12-24T14:36:48;9.60;99.90
36416;DHT22;22447;44.530;18.620;2022-12-24T14:39:34;9.50;99.90
36416;DHT22;22447;44.530;18.620;2022-12-24T14:45:06;9.50;99.90
36416;DHT22;22447;44.530;18.620;2022-12-24T14:47:46;9.60;99.90
36416;DHT22;22447;44.530;18.620;2022-12-24T14:50:47;9.60;99.90
36416;DHT22;22447;44.530;18.620;2022-12-24T14:55:43;9.60;99.90
36416;DHT22;22447;44.530;18.620;2022-12-24T14:58:32;9.60;99.90
36416;DHT22;22447;44.530;18.620;2022-12-24T15:01:15;9.50;99.90
36416;DHT22;22447;44.530;18.620;2022-12-24T15:03:42;9.40;99.90
36416;DHT22;22447;44.530;18.620;2022-12-24T15:06:11;9.40;99.90
36416;DHT22;22447;44.530;18.620;2022-12-24T15:08:43;9.50;99.90
36416;DHT22;22447;44.530;18.620;2022-12-24T15:11:15;9.50;99.90
36416;DHT22;22447;44.530;18.620;2022-12-24T15:13:46;9.40;99.90
36416;DHT22;22447;44.530;18.620;2022-12-24T15:16:24;9.40;99.90
36416;DHT22;22447;44.530;18.620;2022-12-24T15:18:57;9.40;99.90
36416;DHT22;22447;44.530;18.620;2022-12-24T15:21:28;9.40;99.90
36416;DHT22;22447;44.530;18.620;2022-12-24T15:23:55;9.30;99.90
36416;DHT22;22447;44.530;18.620;2022-12-24T15:26:29;9.40;99.90
36416;DHT22;22447;44.530;18.620;2022-12-24T15:28:58;9.40;99.90
36416;DHT22;22447;44.530;18.620;2022-12-24T15:31:26;9.40;99.90
36416;DHT22;22447;44.530;18.620;2022-12-24T15:33:54;9.30;99.90
36416;DHT22;22447;44.530;18.620;2022-12-24T15:36:36;9.30;99.90
36416;DHT22;22447;44.530;18.620;2022-12-24T15:39:07;9.30;99.90
36416;DHT22;22447;44.530;18.620;2022-12-24T15:41:43;9.30;99.90
36416;DHT22;22447;44.530;18.620;2022-12-24T15:44:37;9.20;99.90
36416;DHT22;22447;44.530;18.620;2022-12-24T15:47:12;9.30;99.90
36416;DHT22;22447;44.530;18.620;2022-12-24T15:49:39;9.30;99.90
36416;DHT22;22447;44.530;18.620;2022-12-24T15:52:11;9.40;99.90
36416;DHT22;22447;44.530;18.620;2022-12-24T15:54:43;9.40;99.90
36416;DHT22;22447;44.530;18.620;2022-12-24T15:57:32;9.30;99.90
36416;DHT22;22447;44.530;18.620;2022-12-24T16:00:00;9.30;99.90
36416;DHT22;22447;44.530;18.620;2022-12-24T16:02:45;9.30;99.90
36416;DHT22;22447;44.530;18.620;2022-12-24T16:08:06;9.20;99.90
36416;DHT22;22447;44.530;18.620;2022-12-24T16:10:46;9.20;99.90
36416;DHT22;22447;44.530;18.620;2022-12-24T16:15:58;9.20;99.90
36416;DHT22;22447;44.530;18.620;2022-12-24T16:18:27;9.20;99.90
36416;DHT22;22447;44.530;18.620;2022-12-24T16:20:55;9.20;99.90
36416;DHT22;22447;44.530;18.620;2022-12-24T16:23:25;9.30;99.90
36416;DHT22;22447;44.530;18.620;2022-12-24T16:25:51;9.30;99.90
36416;DHT22;22447;44.530;18.620;2022-12-24T16:28:18;9.30;99.90
36416;DHT22;22447;44.530;18.620;2022-12-24T16:30:45;9.30;99.90
36416;DHT22;22447;44.530;18.620;2022-12-24T16:33:17;9.30;99.90
36416;DHT22;22447;44.530;18.620;2022-12-24T16:35:44;9.30;99.90
36416;DHT22;22447;44.530;18.620;2022-12-24T16:38:11;9.40;99.90
36416;DHT22;22447;44.530;18.620;2022-12-24T16:40:39;9.40;99.90
36416;DHT22;22447;44.530;18.620;2022-12-24T16:43:06;9.30;99.90
36416;DHT22;22447;44.530;18.620;2022-12-24T16:45:51;9.20;99.90
36416;DHT22;22447;44.530;18.620;2022-12-24T16:48:23;9.20;99.90
36416;DHT22;22447;44.530;18.620;2022-12-24T16:50:51;9.20;99.90
36416;DHT22;22447;44.530;18.620;2022-12-24T16:53:18;9.30;99.90
36416;DHT22;22447;44.530;18.620;2022-12-24T16:55:45;9.30;99.90
36416;DHT22;22447;44.530;18.620;2022-12-24T16:58:13;9.30;99.90
36416;DHT22;22447;44.530;18.620;2022-12-24T17:00:41;9.30;99.90
36416;DHT22;22447;44.530;18.620;2022-12-24T17:03:07;9.40;99.90
36416;DHT22;22447;44.530;18.620;2022-12-24T17:05:37;9.30;99.90
36416;DHT22;22447;44.530;18.620;2022-12-24T17:08:04;9.20;99.90
36416;DHT22;22447;44.530;18.620;2022-12-24T17:10:30;9.10;99.90
36416;DHT22;22447;44.530;18.620;2022-12-24T17:12:56;9.20;99.90
36416;DHT22;22447;44.530;18.620;2022-12-24T17:15:22;9.10;99.90
36416;DHT22;22447;44.530;18.620;2022-12-24T17:17:48;9.10;99.90
36416;DHT22;22447;44.530;18.620;2022-12-24T17:20:14;9.10;99.90
36416;DHT22;22447;44.530;18.620;2022-12-24T17:22:40;9.10;99.90
36416;DHT22;22447;44.530;18.620;2022-12-24T17:25:07;9.10;99.90
36416;DHT22;22447;44.530;18.620;2022-12-24T17:27:33;9.00;99.90
36416;DHT22;22447;44.530;18.620;2022-12-24T17:29:59;9.00;99.90
36416;DHT22;22447;44.530;18.620;2022-12-24T17:32:26;9.00;99.90
36416;DHT22;22447;44.530;18.620;2022-12-24T17:34:52;9.00;99.90
36416;DHT22;22447;44.530;18.620;2022-12-24T17:37:18;8.90;99.90
36416;DHT22;22447;44.530;18.620;2022-12-24T17:39:44;9.00;99.90
36416;DHT22;22447;44.530;18.620;2022-12-24T17:42:10;9.10;99.90
36416;DHT22;22447;44.530;18.620;2022-12-24T17:44:36;8.90;99.90
36416;DHT22;22447;44.530;18.620;2022-12-24T17:47:03;8.90;99.90
36416;DHT22;22447;44.530;18.620;2022-12-24T17:49:30;8.90;99.90
36416;DHT22;22447;44.530;18.620;2022-12-24T17:51:56;8.80;99.90
36416;DHT22;22447;44.530;18.620;2022-12-24T17:54:22;8.80;99.90
36416;DHT22;22447;44.530;18.620;2022-12-24T17:56:48;8.80;99.90
36416;DHT22;22447;44.530;18.620;2022-12-24T17:59:14;8.90;99.90
36416;DHT22;22447;44.530;18.620;2022-12-24T18:01:40;8.90;99.90
36416;DHT22;22447;44.530;18.620;2022-12-24T18:04:06;8.90;99.90